FLL weather

Public forecast

Using degrees Fahrenheit for public forecast. Weather courtesy of forecast.io.

Current aviation weather report (METAR) for Fort Lauderdale Hollywood International Airport

Retrieved 2020/08/15 00:53 UTC (1 hour ago):

KFLL 150053Z 13007KT 10SM FEW026 30/24 A2998 RMK AO2 SLP151 T03000239

Aviation forecast (TAF) for Fort Lauderdale Hollywood International Airport

Retrieved 2020-08-15 00:45 UTC (1 hour ago):

TAF KFLL 142342Z 1500/1606 13010KT P6SM FEW028 SCT250 FM150300 VRB03KT P6SM SKC FM151300 14010KT P6SM SCT035 FM160200 VRB04KT P6SM SCT250